Time;durP1;ratioP1;P1;durP2;ratioP2;P2;SDS_P1;SDS_P2;PMS_P1;PMS_P2;Temp;Humidity;BMP_temperature;BMP_pressure;BME280_temperature;BME280_humidity;BME280_pressure;Samples;Min_cycle;Max_cycle;Signal;HPM_P1;HPM_P2
2021/07/30 00:01:45;;;;;;;;;;;;;;;13.15;81.05;99014.66;5033829;28;20425;-61
2021/07/30 00:04:11;;;;;;;;;;;;;;;13.11;80.90;99018.16;5032576;28;19921;-61
2021/07/30 00:06:36;;;;;;;;;;;;;;;13.05;81.22;99008.41;5033719;28;19929;-61
2021/07/30 00:09:01;;;;;;;;;;;;;;;13.10;80.70;99013.81;5033949;28;19936;-61
2021/07/30 00:11:27;;;;;;;;;;;;;;;13.03;81.59;99011.41;5033595;28;19921;-61
2021/07/30 00:13:52;;;;;;;;;;;;;;;12.89;81.74;99002.19;5033971;28;19967;-60
2021/07/30 00:16:17;;;;;;;;;;;;;;;12.84;81.80;98997.59;5033002;28;20355;-61
2021/07/30 00:18:42;;;;;;;;;;;;;;;12.84;81.95;99000.28;5033791;28;20023;-61
2021/07/30 00:21:08;;;;;;;;;;;;;;;12.83;81.81;99000.53;5032912;28;19971;-61
2021/07/30 00:23:33;;;;;;;;;;;;;;;12.82;82.02;99001.63;5033923;28;19917;-61
2021/07/30 00:26:02;;;;;;;;;;;;;;;12.77;82.43;98998.91;5033381;28;20284;-61
2021/07/30 00:28:27;;;;;;;;;;;;;;;12.81;81.71;98998.13;5033601;28;19971;-61
2021/07/30 00:30:53;;;;;;;;;;;;;;;12.95;81.35;98995.75;5033059;28;19925;-60
2021/07/30 00:33:18;;;;;;;;;;;;;;;13.01;81.38;98988.53;5033562;28;19913;-61
2021/07/30 00:35:43;;;;;;;;;;;;;;;12.99;81.10;98994.16;5033311;28;19921;-61
2021/07/30 00:38:08;;;;;;;;;;;;;;;12.94;80.91;98994.94;5033619;28;19932;-61
2021/07/30 00:40:34;;;;;;;;;;;;;;;12.88;80.96;98990.63;5032858;28;19964;-60
2021/07/30 00:43:00;;;;;;;;;;;;;;;12.71;82.18;98996.19;5033397;28;19924;-60
2021/07/30 00:45:25;;;;;;;;;;;;;;;12.65;82.17;98997.22;5033266;28;19918;-61
2021/07/30 00:47:50;;;;;;;;;;;;;;;12.59;82.82;98992.91;5032400;28;20291;-61
2021/07/30 00:50:15;;;;;;;;;;;;;;;12.67;82.20;98997.78;5032794;28;19972;-61
2021/07/30 00:52:41;;;;;;;;;;;;;;;12.60;82.44;98991.03;5033186;28;19917;-61
2021/07/30 00:55:07;;;;;;;;;;;;;;;12.46;83.50;98999.56;5033001;28;19917;-61
2021/07/30 00:57:32;;;;;;;;;;;;;;;12.44;83.61;98987.44;5032157;28;19917;-61
2021/07/30 00:59:57;;;;;;;;;;;;;;;12.34;84.15;98996.25;5033523;28;20378;-61
2021/07/30 01:02:22;;;;;;;;;;;;;;;12.29;84.33;98996.22;5032553;28;20390;-61
2021/07/30 01:04:48;;;;;;;;;;;;;;;12.24;84.01;99002.38;5033554;28;20012;-61
2021/07/30 01:07:13;;;;;;;;;;;;;;;12.19;84.30;98999.66;5032931;28;19921;-61
2021/07/30 01:09:39;;;;;;;;;;;;;;;12.16;84.84;99000.19;5033328;28;19944;-61
2021/07/30 01:12:05;;;;;;;;;;;;;;;12.15;84.53;99008.50;5031560;28;19921;-61
2021/07/30 01:14:30;;;;;;;;;;;;;;;12.04;85.23;99007.63;5033225;28;20745;-61
2021/07/30 01:16:56;;;;;;;;;;;;;;;12.08;85.96;99008.69;5032687;28;19931;-61
2021/07/30 01:19:22;;;;;;;;;;;;;;;12.15;85.60;99019.22;5033226;28;19970;-61
2021/07/30 01:21:47;;;;;;;;;;;;;;;12.15;85.72;99009.28;5031338;28;20001;-61
2021/07/30 01:24:12;;;;;;;;;;;;;;;12.16;85.67;99005.56;5033173;28;19917;-61
2021/07/30 01:26:38;;;;;;;;;;;;;;;12.28;85.79;99008.88;5032387;28;19928;-61
2021/07/30 01:29:03;;;;;;;;;;;;;;;12.26;85.67;99004.81;5032688;28;19917;-61
2021/07/30 01:31:28;;;;;;;;;;;;;;;12.19;86.05;99005.03;5033391;28;19921;-61
2021/07/30 01:33:53;;;;;;;;;;;;;;;12.12;86.40;99004.44;5037124;28;20406;-61
2021/07/30 01:36:19;;;;;;;;;;;;;;;12.10;85.98;98998.50;5036164;28;20394;-61
2021/07/30 01:38:44;;;;;;;;;;;;;;;12.09;85.71;98994.22;5036934;28;19917;-61
2021/07/30 01:41:09;;;;;;;;;;;;;;;12.12;86.32;98991.00;5036396;28;20375;-61
2021/07/30 01:43:35;;;;;;;;;;;;;;;12.03;86.24;98998.75;5036633;28;19924;-61
2021/07/30 01:46:01;;;;;;;;;;;;;;;12.14;87.30;98994.25;5036424;28;20334;-61
2021/07/30 01:48:26;;;;;;;;;;;;;;;12.18;85.86;98992.69;5036561;28;19917;-61
2021/07/30 01:50:51;;;;;;;;;;;;;;;12.05;85.48;98991.22;5036365;28;19928;-61
2021/07/30 01:53:16;;;;;;;;;;;;;;;12.06;86.28;98984.00;5036658;28;19980;-61
2021/07/30 01:55:42;;;;;;;;;;;;;;;12.11;85.71;98985.91;5036026;28;19921;-61
2021/07/30 01:58:07;;;;;;;;;;;;;;;11.97;85.96;98985.53;5036353;28;19917;-61
2021/07/30 02:00:32;;;;;;;;;;;;;;;11.99;86.61;98978.84;5036171;28;20019;-61
2021/07/30 02:02:57;;;;;;;;;;;;;;;11.98;87.13;98985.28;5036172;28;19936;-61
2021/07/30 02:05:23;;;;;;;;;;;;;;;12.06;87.00;98979.44;5036091;28;20263;-61
2021/07/30 02:07:48;;;;;;;;;;;;;;;12.01;87.18;98978.59;5036330;28;19921;-61
2021/07/30 02:10:14;;;;;;;;;;;;;;;11.95;87.72;98984.97;5035687;28;20016;-61
2021/07/30 02:15:23;;;;;;;;;;;;;;;11.84;87.77;98971.44;5035634;28;19940;-61
2021/07/30 02:17:48;;;;;;;;;;;;;;;11.80;88.45;98975.69;5036107;28;19917;-61
2021/07/30 02:20:13;;;;;;;;;;;;;;;11.68;88.73;98971.56;5035781;28;19917;-61
2021/07/30 02:22:38;;;;;;;;;;;;;;;11.64;89.10;98971.28;5036194;28;20355;-61
2021/07/30 02:25:04;;;;;;;;;;;;;;;11.67;88.96;98970.75;5035559;28;19944;-61
2021/07/30 02:27:29;;;;;;;;;;;;;;;11.79;89.05;98971.41;5035831;28;19917;-61
2021/07/30 02:29:54;;;;;;;;;;;;;;;11.86;88.54;98973.88;5035963;28;20386;-61
2021/07/30 02:32:19;;;;;;;;;;;;;;;11.89;88.16;98968.03;5035468;28;20284;-61
2021/07/30 02:34:45;;;;;;;;;;;;;;;11.89;87.43;98962.66;5035952;28;19952;-62
2021/07/30 02:37:10;;;;;;;;;;;;;;;11.84;87.32;98962.56;5035427;28;19925;-61
2021/07/30 02:39:35;;;;;;;;;;;;;;;11.78;87.95;98953.69;5034534;28;19917;-61
2021/07/30 02:42:00;;;;;;;;;;;;;;;11.68;87.74;98950.88;5035303;28;20012;-61
2021/07/30 02:44:26;;;;;;;;;;;;;;;11.73;89.22;98955.50;5035095;28;19940;-61
2021/07/30 02:46:51;;;;;;;;;;;;;;;11.68;87.84;98948.22;5035149;28;19921;-61
2021/07/30 02:49:16;;;;;;;;;;;;;;;11.71;88.50;98958.47;5035577;28;19992;-61
2021/07/30 02:51:41;;;;;;;;;;;;;;;11.79;88.49;98951.81;5035204;28;20354;-61
2021/07/30 02:54:07;;;;;;;;;;;;;;;11.74;88.55;98960.63;5035497;28;19917;-61
2021/07/30 02:56:32;;;;;;;;;;;;;;;11.68;88.96;98952.78;5035095;28;19921;-61
2021/07/30 02:58:57;;;;;;;;;;;;;;;11.65;88.55;98956.78;5035341;28;20142;-61
2021/07/30 03:01:22;;;;;;;;;;;;;;;11.59;89.17;98957.81;5034898;28;19921;-61
2021/07/30 03:03:48;;;;;;;;;;;;;;;11.55;88.92;98952.13;5035236;28;19928;-61
2021/07/30 03:06:13;;;;;;;;;;;;;;;11.47;89.23;98944.56;5035009;28;20330;-61
2021/07/30 03:08:38;;;;;;;;;;;;;;;11.49;89.09;98947.00;5035209;28;19924;-61
2021/07/30 03:11:03;;;;;;;;;;;;;;;11.45;88.96;98947.47;5034683;28;19928;-61
2021/07/30 03:13:29;;;;;;;;;;;;;;;11.40;89.16;98946.63;5035038;28;20291;-61
2021/07/30 03:15:54;;;;;;;;;;;;;;;11.33;90.17;98946.84;5034559;28;19921;-61
2021/07/30 03:18:20;;;;;;;;;;;;;;;11.37;89.55;98945.28;5035117;28;19924;-61
2021/07/30 03:20:45;;;;;;;;;;;;;;;11.31;89.42;98946.28;5034685;28;19951;-61
2021/07/30 03:23:10;;;;;;;;;;;;;;;11.32;89.48;98942.53;5035070;28;19928;-61
2021/07/30 03:25:35;;;;;;;;;;;;;;;11.27;89.27;98942.50;5034006;28;19921;-61
2021/07/30 03:28:01;;;;;;;;;;;;;;;11.31;89.75;98943.63;5034683;28;19940;-62
2021/07/30 03:30:26;;;;;;;;;;;;;;;11.35;90.01;98944.72;5034435;28;19928;-61
2021/07/30 03:32:51;;;;;;;;;;;;;;;11.29;89.79;98940.38;5034180;28;20051;-61
2021/07/30 03:35:16;;;;;;;;;;;;;;;11.29;90.02;98950.31;5034319;28;19917;-61
2021/07/30 03:37:42;;;;;;;;;;;;;;;11.23;90.21;98944.06;5066608;28;20015;-61
2021/07/30 03:40:07;;;;;;;;;;;;;;;11.24;90.48;98945.69;5034061;28;19924;-61
2021/07/30 03:42:32;;;;;;;;;;;;;;;11.22;90.28;98939.75;5033254;28;19933;-61
2021/07/30 03:44:58;;;;;;;;;;;;;;;11.22;90.28;98943.25;5034412;28;19924;-61
2021/07/30 03:47:23;;;;;;;;;;;;;;;11.24;90.14;98948.38;5032912;28;20008;-61
2021/07/30 03:49:48;;;;;;;;;;;;;;;11.30;90.50;98941.97;5034585;28;20376;-61
2021/07/30 03:52:15;;;;;;;;;;;;;;;11.29;90.40;98942.25;5034001;28;19921;-61
2021/07/30 03:54:41;;;;;;;;;;;;;;;11.30;90.55;98936.63;5033298;28;20012;-61
2021/07/30 03:57:07;;;;;;;;;;;;;;;11.31;90.07;98946.28;5033889;28;20410;-61
2021/07/30 03:59:32;;;;;;;;;;;;;;;11.31;90.00;98953.53;5034119;28;20286;-61
2021/07/30 04:01:57;;;;;;;;;;;;;;;11.38;89.67;98952.28;5033667;28;19920;-61
2021/07/30 04:04:22;;;;;;;;;;;;;;;11.49;89.45;98952.34;5034270;28;19917;-61
2021/07/30 04:06:48;;;;;;;;;;;;;;;11.61;88.27;98950.31;5033757;28;20338;-61
2021/07/30 04:09:13;;;;;;;;;;;;;;;12.01;87.06;98955.22;5033977;28;20012;-61
2021/07/30 04:11:39;;;;;;;;;;;;;;;12.53;84.20;98956.31;5032350;28;19921;-61
2021/07/30 04:14:05;;;;;;;;;;;;;;;12.82;83.25;98950.50;5033104;28;19941;-61
2021/07/30 04:16:30;;;;;;;;;;;;;;;12.93;82.04;98949.50;5033687;28;20359;-62
2021/07/30 04:18:56;;;;;;;;;;;;;;;13.09;80.97;98958.41;5033085;28;19917;-62
2021/07/30 04:21:21;;;;;;;;;;;;;;;13.80;78.87;98961.22;5033653;28;19986;-62
2021/07/30 04:23:46;;;;;;;;;;;;;;;14.43;76.34;98955.44;5033868;28;19953;-61
2021/07/30 04:26:11;;;;;;;;;;;;;;;14.94;73.84;98965.25;5033432;28;19921;-61
2021/07/30 04:28:37;;;;;;;;;;;;;;;15.14;72.03;98952.75;5033953;28;19925;-62
2021/07/30 04:31:04;;;;;;;;;;;;;;;13.97;76.41;98955.53;5033448;28;20239;-62
2021/07/30 04:33:31;;;;;;;;;;;;;;;13.62;78.89;98947.47;5034027;28;20311;-62
2021/07/30 04:35:56;;;;;;;;;;;;;;;13.96;77.54;98950.44;5033390;28;19921;-62
2021/07/30 04:38:22;;;;;;;;;;;;;;;14.02;77.32;98952.00;5032481;28;19931;-62
2021/07/30 04:40:47;;;;;;;;;;;;;;;13.78;78.58;98951.78;5033633;28;20513;-61
2021/07/30 04:43:12;;;;;;;;;;;;;;;13.99;77.65;98947.97;5033571;28;19933;-62
2021/07/30 04:45:38;;;;;;;;;;;;;;;16.13;69.47;98952.53;5031905;28;20008;-61
2021/07/30 04:48:03;;;;;;;;;;;;;;;16.78;66.73;98955.63;5033387;28;19959;-61
2021/07/30 04:50:29;;;;;;;;;;;;;;;16.66;66.27;98954.41;5033382;28;19922;-61
2021/07/30 04:52:54;;;;;;;;;;;;;;;16.97;66.24;98955.66;5033494;28;20387;-62
2021/07/30 04:55:20;;;;;;;;;;;;;;;17.38;63.88;98955.09;5033045;28;19933;-62
2021/07/30 04:57:45;;;;;;;;;;;;;;;17.55;64.14;98957.28;5033542;28;19971;-62
2021/07/30 05:00:11;;;;;;;;;;;;;;;19.36;57.56;98954.38;5033224;28;19947;-61
2021/07/30 05:02:36;;;;;;;;;;;;;;;20.91;52.85;98954.75;5033422;28;19921;-61
2021/07/30 05:05:01;;;;;;;;;;;;;;;21.35;51.49;98952.09;5031720;28;19963;-62
2021/07/30 05:07:26;;;;;;;;;;;;;;;21.49;50.22;98952.75;5033138;28;20370;-61
2021/07/30 05:09:52;;;;;;;;;;;;;;;21.44;50.88;98955.63;5033043;28;20393;-59
2021/07/30 05:12:17;;;;;;;;;;;;;;;21.58;50.15;98961.72;5032832;28;19925;-61
2021/07/30 05:14:42;;;;;;;;;;;;;;;21.11;51.52;98958.78;5033035;28;19917;-59
2021/07/30 05:17:07;;;;;;;;;;;;;;;20.93;51.79;98963.41;5032868;28;19921;-60
2021/07/30 05:19:33;;;;;;;;;;;;;;;19.42;56.19;98959.69;5033056;28;19965;-61
2021/07/30 05:21:58;;;;;;;;;;;;;;;19.23;56.65;98952.50;5033211;28;19963;-62
2021/07/30 05:24:23;;;;;;;;;;;;;;;19.92;55.34;98960.41;5033362;28;19917;-61
2021/07/30 05:26:49;;;;;;;;;;;;;;;21.20;52.23;98950.63;5032711;28;19928;-59
2021/07/30 05:29:14;;;;;;;;;;;;;;;22.34;48.95;98961.13;5032852;28;19917;-59
2021/07/30 05:31:39;;;;;;;;;;;;;;;22.34;48.57;98955.66;5032719;28;19921;-59
2021/07/30 05:34:04;;;;;;;;;;;;;;;23.03;46.88;98951.00;5032667;28;20530;-60
2021/07/30 05:36:30;;;;;;;;;;;;;;;23.02;46.88;98952.94;5032692;28;19925;-59
2021/07/30 05:38:55;;;;;;;;;;;;;;;24.27;44.06;98945.69;5032852;28;19917;-59
2021/07/30 05:41:20;;;;;;;;;;;;;;;23.92;44.88;98936.28;5032636;28;20287;-60
2021/07/30 05:43:46;;;;;;;;;;;;;;;24.73;42.37;98945.63;5032937;28;19917;-60
2021/07/30 05:46:14;;;;;;;;;;;;;;;23.86;44.13;98944.72;5064342;28;19998;-60
2021/07/30 05:48:39;;;;;;;;;;;;;;;24.84;42.40;98940.50;5033047;28;19932;-60
2021/07/30 05:51:05;;;;;;;;;;;;;;;24.05;43.93;98941.44;5032408;28;19922;-60
2021/07/30 05:53:30;;;;;;;;;;;;;;;23.93;44.41;98935.13;5032899;28;20066;-60
2021/07/30 05:55:55;;;;;;;;;;;;;;;23.89;44.29;98935.81;5032349;28;20391;-59
2021/07/30 05:58:20;;;;;;;;;;;;;;;24.98;42.04;98930.72;5032940;28;19948;-60
2021/07/30 06:00:46;;;;;;;;;;;;;;;25.48;40.47;98942.41;5032392;28;19928;-59
2021/07/30 06:03:11;;;;;;;;;;;;;;;23.85;44.57;98928.63;5032545;28;19929;-60
2021/07/30 06:05:36;;;;;;;;;;;;;;;22.58;47.61;98927.75;5031861;28;19944;-59
2021/07/30 06:08:05;;;;;;;;;;;;;;;21.38;50.29;98924.19;5032661;28;19917;-59
2021/07/30 06:10:30;;;;;;;;;;;;;;;21.17;49.25;98924.84;5032540;28;20024;-59
2021/07/30 06:12:55;;;;;;;;;;;;;;;23.27;47.08;98924.94;5032826;28;20454;-59
2021/07/30 06:15:23;;;;;;;;;;;;;;;24.77;42.20;98921.09;5032221;28;19921;-59
2021/07/30 06:17:48;;;;;;;;;;;;;;;24.58;40.83;98919.72;5031834;28;19996;-59
2021/07/30 06:20:13;;;;;;;;;;;;;;;21.98;45.76;98920.59;5036009;28;19957;-59
2021/07/30 06:22:38;;;;;;;;;;;;;;;22.85;45.32;98925.69;5036208;28;19924;-59
2021/07/30 06:25:04;;;;;;;;;;;;;;;23.98;42.43;98922.03;5034488;28;20442;-59
2021/07/30 06:27:30;;;;;;;;;;;;;;;24.28;41.27;98927.31;5036297;28;19913;-59
2021/07/30 06:29:55;;;;;;;;;;;;;;;24.53;40.28;98917.19;5036027;28;19923;-61
2021/07/30 06:32:20;;;;;;;;;;;;;;;24.43;41.17;98921.16;5036072;28;19971;-62
2021/07/30 06:34:46;;;;;;;;;;;;;;;24.18;42.26;98925.81;5036032;28;19999;-61
2021/07/30 06:37:11;;;;;;;;;;;;;;;24.46;41.36;98923.28;5035448;28;19921;-59
2021/07/30 06:39:38;;;;;;;;;;;;;;;24.84;40.26;98924.03;5036094;28;20362;-60
2021/07/30 06:42:04;;;;;;;;;;;;;;;25.98;38.15;98932.81;5035359;28;19917;-59
2021/07/30 06:44:29;;;;;;;;;;;;;;;25.71;38.35;98930.88;5034494;28;20330;-59
2021/07/30 06:46:54;;;;;;;;;;;;;;;23.93;41.84;98913.25;5035207;28;19921;-61
2021/07/30 06:49:19;;;;;;;;;;;;;;;25.66;37.72;98925.63;5035611;28;19963;-59
2021/07/30 06:51:45;;;;;;;;;;;;;;;26.08;36.86;98926.00;5035260;28;19952;-59
2021/07/30 06:54:10;;;;;;;;;;;;;;;26.00;36.63;98936.00;5034671;28;20330;-61
2021/07/30 06:56:36;;;;;;;;;;;;;;;25.02;38.68;98930.84;5035196;28;19928;-59
2021/07/30 06:59:02;;;;;;;;;;;;;;;25.34;37.63;98922.81;5035424;28;20265;-59
2021/07/30 07:01:27;;;;;;;;;;;;;;;26.03;36.26;98927.09;5033888;28;19929;-59
2021/07/30 07:03:53;;;;;;;;;;;;;;;26.33;36.32;98931.31;5035301;28;20050;-59
2021/07/30 07:06:19;;;;;;;;;;;;;;;25.58;38.25;98930.91;5034876;28;20339;-59
2021/07/30 07:08:44;;;;;;;;;;;;;;;25.39;38.36;98928.84;5035472;28;19976;-59
2021/07/30 07:11:09;;;;;;;;;;;;;;;26.25;36.26;98919.38;5033706;28;19936;-59
2021/07/30 07:13:35;;;;;;;;;;;;;;;25.66;37.61;98920.16;5035280;28;20367;-61
2021/07/30 07:16:00;;;;;;;;;;;;;;;25.20;38.11;98922.41;5013632;28;20020;-59
2021/07/30 07:18:25;;;;;;;;;;;;;;;24.49;40.90;98919.03;5014955;28;19936;-61
2021/07/30 07:20:57;;;;;;;;;;;;;;;23.41;42.97;98915.34;5022019;28;19921;-59
2021/07/30 07:23:22;;;;;;;;;;;;;;;26.28;37.53;98912.38;5033888;28;19944;-59
2021/07/30 07:25:47;;;;;;;;;;;;;;;25.28;38.56;98913.22;5028484;28;19945;-59
2021/07/30 07:28:13;;;;;;;;;;;;;;;24.96;39.73;98915.78;5013877;28;19964;-59
2021/07/30 07:30:38;;;;;;;;;;;;;;;25.86;37.31;98924.66;5019836;28;19921;-59
2021/07/30 07:33:03;;;;;;;;;;;;;;;25.50;39.81;98915.41;5034541;28;19917;-59
2021/07/30 07:35:28;;;;;;;;;;;;;;;26.03;38.26;98913.34;5030511;28;19928;-59
2021/07/30 07:37:59;;;;;;;;;;;;;;;23.53;43.28;98913.78;5014917;28;19924;-59
2021/07/30 07:40:25;;;;;;;;;;;;;;;24.51;41.14;98912.09;5018167;28;20275;-59
2021/07/30 07:42:50;;;;;;;;;;;;;;;26.80;37.07;98903.81;5034677;28;19941;-59
2021/07/30 07:45:15;;;;;;;;;;;;;;;27.99;35.32;98900.72;5034148;28;20015;-59
2021/07/30 07:47:40;;;;;;;;;;;;;;;29.09;32.92;98903.63;5034630;28;19921;-59
2021/07/30 07:50:06;;;;;;;;;;;;;;;27.77;35.10;98897.56;5034038;28;19924;-60
2021/07/30 07:52:33;;;;;;;;;;;;;;;29.67;32.37;98894.88;5034668;28;20069;-59
2021/07/30 07:54:58;;;;;;;;;;;;;;;26.43;36.57;98892.31;5034576;28;19918;-59
2021/07/30 07:57:23;;;;;;;;;;;;;;;26.61;36.38;98899.09;5034028;28;19928;-60
2021/07/30 07:59:49;;;;;;;;;;;;;;;26.74;35.55;98897.00;5034407;28;20012;-60
2021/07/30 08:02:14;;;;;;;;;;;;;;;26.51;35.99;98890.53;5033632;28;19996;-60
2021/07/30 08:04:39;;;;;;;;;;;;;;;27.59;34.83;98893.69;5034230;28;19917;-59
2021/07/30 08:07:07;;;;;;;;;;;;;;;25.71;36.34;98895.19;5033786;28;19939;-59
2021/07/30 08:09:32;;;;;;;;;;;;;;;27.15;35.61;98889.25;5034232;28;19932;-59
2021/07/30 08:11:58;;;;;;;;;;;;;;;26.98;35.02;98876.69;5033658;28;19925;-59
2021/07/30 08:14:23;;;;;;;;;;;;;;;28.39;32.95;98878.16;5033106;28;19925;-59
2021/07/30 08:16:49;;;;;;;;;;;;;;;28.06;32.81;98876.84;5033575;28;19967;-59
2021/07/30 08:19:14;;;;;;;;;;;;;;;28.56;32.86;98872.16;5032551;28;19917;-59
2021/07/30 08:21:39;;;;;;;;;;;;;;;27.77;33.47;98874.75;5033763;28;19940;-60
2021/07/30 08:24:05;;;;;;;;;;;;;;;28.13;33.40;98865.13;5033790;28;20375;-59
2021/07/30 08:26:30;;;;;;;;;;;;;;;29.04;31.83;98866.88;5033478;28;19924;-59
2021/07/30 08:28:55;;;;;;;;;;;;;;;26.33;34.99;98854.41;5033903;28;19960;-59
2021/07/30 08:31:27;;;;;;;;;;;;;;;26.35;35.85;98863.09;5033518;28;20294;-59
2021/07/30 08:33:52;;;;;;;;;;;;;;;25.48;36.75;98868.31;5034010;28;19918;-61
2021/07/30 08:36:17;;;;;;;;;;;;;;;26.47;35.73;98860.25;5033741;28;20371;-60
2021/07/30 08:38:43;;;;;;;;;;;;;;;27.32;34.25;98861.31;5033775;28;19929;-60
2021/07/30 08:41:08;;;;;;;;;;;;;;;27.99;33.36;98859.41;5032784;28;20272;-60
2021/07/30 08:43:33;;;;;;;;;;;;;;;27.06;35.24;98864.72;5033612;28;19925;-60
2021/07/30 08:45:58;;;;;;;;;;;;;;;26.63;35.20;98860.22;5033152;28;19928;-59
2021/07/30 08:48:24;;;;;;;;;;;;;;;27.16;33.33;98852.34;5033259;28;19959;-59
2021/07/30 08:50:49;;;;;;;;;;;;;;;27.63;33.52;98858.75;5033080;28;19921;-60
2021/07/30 08:53:22;;;;;;;;;;;;;;;26.56;35.37;98857.31;5032339;28;19913;-60
2021/07/30 08:55:47;;;;;;;;;;;;;;;26.98;33.97;98851.94;5032946;28;19921;-59
2021/07/30 08:58:13;;;;;;;;;;;;;;;25.82;36.69;98852.38;5033492;28;19943;-60
2021/07/30 09:00:39;;;;;;;;;;;;;;;26.61;36.23;98844.13;5033105;28;19921;-60
2021/07/30 09:03:04;;;;;;;;;;;;;;;28.06;33.80;98852.06;5033080;28;19925;-59
2021/07/30 09:05:29;;;;;;;;;;;;;;;27.36;34.10;98842.16;5032868;28;19921;-60
2021/07/30 09:07:55;;;;;;;;;;;;;;;26.20;37.01;98849.03;5033317;28;19916;-60
2021/07/30 09:10:26;;;;;;;;;;;;;;;25.39;36.95;98840.28;5032955;28;19986;-60
2021/07/30 09:12:51;;;;;;;;;;;;;;;24.93;37.42;98837.78;5015946;28;20420;-59
2021/07/30 09:15:19;;;;;;;;;;;;;;;26.70;35.43;98838.41;5015198;28;20020;-60
2021/07/30 09:17:45;;;;;;;;;;;;;;;26.49;35.90;98829.69;5033308;28;19967;-59
2021/07/30 09:20:10;;;;;;;;;;;;;;;25.78;36.79;98835.00;5031803;28;19987;-59
2021/07/30 09:22:46;;;;;;;;;;;;;;;27.31;34.41;98832.22;5013679;28;19921;-60
2021/07/30 09:25:11;;;;;;;;;;;;;;;27.79;33.07;98828.38;5014893;28;20016;-60
2021/07/30 09:27:37;;;;;;;;;;;;;;;27.36;34.43;98830.31;5032594;28;20014;-60
2021/07/30 09:30:12;;;;;;;;;;;;;;;27.58;33.45;98829.56;5032303;28;19917;-60
2021/07/30 09:32:37;;;;;;;;;;;;;;;28.18;32.59;98818.81;5012932;28;19975;-60
2021/07/30 09:35:03;;;;;;;;;;;;;;;27.20;34.48;98828.47;5013535;28;20016;-60
2021/07/30 09:37:28;;;;;;;;;;;;;;;26.34;35.07;98812.06;5033099;28;19917;-60
2021/07/30 09:39:53;;;;;;;;;;;;;;;26.46;35.91;98826.47;5033051;28;19916;-60
2021/07/30 09:42:20;;;;;;;;;;;;;;;26.07;35.44;98819.28;5013665;28;19917;-60
2021/07/30 09:44:49;;;;;;;;;;;;;;;26.73;35.22;98828.63;5013044;28;19917;-60
2021/07/30 09:47:20;;;;;;;;;;;;;;;27.78;33.85;98810.25;5030891;28;20410;-61
2021/07/30 09:50:02;;;;;;;;;;;;;;;27.36;33.29;98813.81;5032672;28;19925;-60
2021/07/30 09:52:28;;;;;;;;;;;;;;;26.86;34.73;98822.66;5032501;28;20449;-60
2021/07/30 09:54:53;;;;;;;;;;;;;;;26.78;34.96;98809.91;5036144;28;19917;-60
2021/07/30 09:57:19;;;;;;;;;;;;;;;26.45;35.02;98802.09;5017207;28;20624;-61
2021/07/30 09:59:45;;;;;;;;;;;;;;;27.84;34.00;98792.28;5016786;28;19917;-60
2021/07/30 10:02:17;;;;;;;;;;;;;;;28.66;32.57;98789.97;5034014;28;19925;-60
2021/07/30 10:04:44;;;;;;;;;;;;;;;26.49;35.01;98791.22;5036600;28;19972;-60
2021/07/30 10:07:11;;;;;;;;;;;;;;;25.80;36.82;98789.59;5018572;28;19967;-60
2021/07/30 10:09:36;;;;;;;;;;;;;;;25.94;35.82;98777.41;5015262;28;19918;-60
2021/07/30 10:12:02;;;;;;;;;;;;;;;27.11;34.08;98789.38;5032779;28;19940;-62
2021/07/30 10:14:28;;;;;;;;;;;;;;;25.92;35.45;98776.97;5034824;28;19924;-60
2021/07/30 10:17:03;;;;;;;;;;;;;;;25.91;35.52;98780.84;5035658;28;19948;-60
2021/07/30 10:19:28;;;;;;;;;;;;;;;26.73;34.41;98768.97;5036107;28;19929;-60
2021/07/30 10:21:54;;;;;;;;;;;;;;;26.28;35.75;98773.06;5035547;28;19937;-60
2021/07/30 10:24:20;;;;;;;;;;;;;;;25.83;35.72;98750.47;5035872;28;19917;-60
2021/07/30 10:26:45;;;;;;;;;;;;;;;25.95;36.13;98752.31;5034266;28;20425;-60
2021/07/30 10:29:12;;;;;;;;;;;;;;;26.56;34.48;98758.38;5036028;28;19921;-60
2021/07/30 10:31:48;;;;;;;;;;;;;;;26.32;35.19;98765.72;5035631;28;20038;-59
2021/07/30 10:34:13;;;;;;;;;;;;;;;25.90;35.02;98762.78;5036092;28;19924;-60
2021/07/30 10:36:39;;;;;;;;;;;;;;;27.11;34.70;98759.13;5035371;28;19921;-60
2021/07/30 10:39:04;;;;;;;;;;;;;;;24.54;38.30;98754.44;5035688;28;19917;-60
2021/07/30 10:41:30;;;;;;;;;;;;;;;25.55;36.68;98750.53;5035324;28;19917;-60
2021/07/30 10:44:01;;;;;;;;;;;;;;;26.45;35.64;98745.19;5036080;28;19917;-60
2021/07/30 10:46:27;;;;;;;;;;;;;;;26.82;34.62;98744.03;5035199;28;19918;-60
2021/07/30 10:48:54;;;;;;;;;;;;;;;25.76;36.99;98744.81;5035589;28;19917;-60
2021/07/30 10:51:25;;;;;;;;;;;;;;;26.21;36.10;98742.72;5033749;28;19929;-60
2021/07/30 10:53:59;;;;;;;;;;;;;;;27.06;35.69;98738.22;5035777;28;20382;-60
2021/07/30 10:56:24;;;;;;;;;;;;;;;26.79;35.67;98739.25;5035256;28;19971;-60
2021/07/30 10:58:50;;;;;;;;;;;;;;;26.54;35.43;98741.50;5035607;28;20367;-60
2021/07/30 11:01:19;;;;;;;;;;;;;;;26.32;36.06;98743.75;5034082;28;19929;-61
2021/07/30 11:03:50;;;;;;;;;;;;;;;24.99;38.49;98742.41;5033738;28;19921;-59
2021/07/30 11:06:19;;;;;;;;;;;;;;;25.92;36.99;98735.78;5035191;28;20000;-59
2021/07/30 11:09:03;;;;;;;;;;;;;;;25.61;38.29;98732.69;5035317;28;19924;-60
2021/07/30 11:11:41;;;;;;;;;;;;;;;26.13;37.85;98733.50;5034786;28;19922;-59
2021/07/30 11:14:12;;;;;;;;;;;;;;;26.87;36.13;98736.25;5035058;28;19917;-60
2021/07/30 11:16:37;;;;;;;;;;;;;;;24.60;38.87;98749.53;5021533;28;19964;-59
2021/07/30 11:19:06;;;;;;;;;;;;;;;24.76;38.80;98733.91;5015705;28;19963;-59
2021/07/30 11:21:31;;;;;;;;;;;;;;;24.89;38.46;98735.47;5025999;28;20329;-59
2021/07/30 11:23:56;;;;;;;;;;;;;;;24.82;40.29;98734.50;5035242;28;19917;-60
2021/07/30 11:26:22;;;;;;;;;;;;;;;25.15;39.41;98732.25;5023367;28;20310;-59
2021/07/30 11:28:58;;;;;;;;;;;;;;;26.13;37.22;98727.22;5015040;28;19921;-59
2021/07/30 11:31:23;;;;;;;;;;;;;;;24.81;39.26;98710.97;5026057;28;19925;-59
2021/07/30 11:33:49;;;;;;;;;;;;;;;25.95;37.53;98727.63;5034579;28;19936;-59
2021/07/30 11:36:17;;;;;;;;;;;;;;;26.75;35.58;98724.63;5022953;28;19921;-60
2021/07/30 11:38:49;;;;;;;;;;;;;;;25.92;36.38;98725.59;5013693;28;19917;-60
2021/07/30 11:41:14;;;;;;;;;;;;;;;25.77;36.89;98729.13;5014338;28;20032;-59
2021/07/30 11:44:18;;;;;;;;;;;;;;;26.25;35.97;98727.09;5014656;28;19952;-59
2021/07/30 11:46:53;;;;;;;;;;;;;;;25.77;37.25;98720.88;5020441;28;20397;-59
2021/07/30 11:49:18;;;;;;;;;;;;;;;25.98;36.63;98707.69;5032387;28;20462;-59
2021/07/30 11:51:44;;;;;;;;;;;;;;;25.98;37.98;98713.16;5022861;28;19981;-59
2021/07/30 11:54:09;;;;;;;;;;;;;;;26.44;36.64;98712.59;5034806;28;19917;-59
2021/07/30 11:56:43;;;;;;;;;;;;;;;27.29;36.71;98713.50;5033895;28;19928;-59
2021/07/30 11:59:08;;;;;;;;;;;;;;;25.85;37.64;98703.47;5066403;28;19924;-59
2021/07/30 12:01:34;;;;;;;;;;;;;;;25.61;37.64;98705.25;5032843;28;19996;-59
2021/07/30 12:04:05;;;;;;;;;;;;;;;25.93;37.68;98707.16;5034058;28;20012;-59
2021/07/30 12:06:30;;;;;;;;;;;;;;;26.31;37.46;98698.22;5034030;28;20002;-60
2021/07/30 12:08:56;;;;;;;;;;;;;;;25.78;37.43;98695.03;5034315;28;20372;-60
2021/07/30 12:11:23;;;;;;;;;;;;;;;25.32;38.42;98691.97;5033874;28;20256;-60
2021/07/30 12:13:50;;;;;;;;;;;;;;;24.40;40.13;98677.31;5032214;28;20440;-60
2021/07/30 12:16:15;;;;;;;;;;;;;;;25.73;38.75;98689.81;5031504;28;19929;-60
2021/07/30 12:18:41;;;;;;;;;;;;;;;26.03;36.95;98679.97;5033976;28;19921;-60
2021/07/30 12:21:07;;;;;;;;;;;;;;;25.03;38.52;98674.75;5033649;28;20394;-60
2021/07/30 12:23:33;;;;;;;;;;;;;;;25.65;37.67;98677.88;5034114;28;19923;-59
2021/07/30 12:25:58;;;;;;;;;;;;;;;26.43;37.41;98673.34;5033619;28;20342;-60
2021/07/30 12:28:24;;;;;;;;;;;;;;;26.32;37.24;98672.31;5033633;28;20393;-60
2021/07/30 12:30:50;;;;;;;;;;;;;;;26.49;36.71;98665.59;5033556;28;19987;-60
2021/07/30 12:33:32;;;;;;;;;;;;;;;26.80;35.55;98663.84;5033684;28;19924;-60
2021/07/30 12:36:15;;;;;;;;;;;;;;;26.51;35.68;98654.22;5033231;28;19952;-60
2021/07/30 12:39:03;;;;;;;;;;;;;;;26.71;35.56;98649.53;5033948;28;19963;-60
2021/07/30 12:41:31;;;;;;;;;;;;;;;25.76;36.96;98645.19;5033232;28;19921;-60
2021/07/30 12:44:09;;;;;;;;;;;;;;;25.17;37.93;98647.72;5033412;28;19967;-60
2021/07/30 12:46:38;;;;;;;;;;;;;;;26.80;36.82;98642.66;5033209;28;19972;-60